Aeroporto :
LOGIN :

Iscrizione | Disclaimer

   EN    FR    IT 

 










Sommario :    VFR   VFR Marginale   IFR   IFR Intensivo   IFR Molto Intensivo
Visibilità : 
Base nubi : 
>= 8 km
>= 3000ft
5 / 8 km
1000 / 3000 ft
1500m / 5 km
500 / 1000 ft
800 / 1500m
200 / 500 ft
< 800m
< 200 ft
Simboli :   Temporali  Nebbia  Neve Forte  Precipitazioni Forti  Vento > 20 kt
SIGMETs :   Varie  Temporali  Ghiacco  Turbolenza  Onda orograficha  Ceneri Vulcaniche






- Altitudine del aeroporto : 46 ft
- Codice IATA : SNN


EINN - Shannon

ULTIMO METAR :
  • 062000Z 26009KT 9999 SCT022 08/07 Q1010 NOSIG

METARs OBSOLETI :
  • 061930Z 26010KT 9999 FEW012 SCT020 08/07 Q1009 NOSIG
  • 061900Z 26009KT 9999 FEW012 SCT020 08/06 Q1009 NOSIG
  • 061830Z 27010KT 9999 FEW012 SCT020 08/07 Q1009 NOSIG
  • 061800Z 27012KT 9999 FEW012 BKN020 BKN030 09/07 Q1008 NOSIG
  • 061730Z 27010KT 9999 FEW012 SCT030 09/07 Q1008 NOSIG

TAF TAF EINN
Valido dal 06 a 18 ore il 07 a 18 ore UTC


061700Z 0618/0718 29013KT 9999 FEW012 SCT030
BECMG 0619/0621 28008KT
BECMG 0621/0623 25008KT
BECMG 0703/0705 21007KT
BECMG 0707/0709 18010KT
TEMPO 0707/0712 BKN012
BECMG 0710/0712 21012KT
BECMG 0714/0716 17015KT -RA BKN012
BECMG 0716/0718 17018G29KT
TEMPO 0716/0718 4000 RADZ BKN007



MetMap, La meteo Aeronautica in un colpo d'occhio ! - Copyright ORBIFLY Dicembre 2007 - Disclaimer

ORBIFLY MET'MAP TEAM :

Programmazione e sviluppo : Alexandra Zaïnal
Concezione : Baudouin d'Aumeries
Aiuto per la programmazione : Marc-Olivier Méhu
Supporto tecnico e logistico : Manuel Goepfert
Aiuto per la traduzione : Arnaldo La Scala

Contatto : metmap@orbifly.com




FONTI E CREDITI :

   NOAA